Time,TemperatureF,DewpointF,PressureIn,WindDirection,WindDirectionDegrees,WindSpeedMPH,WindSpeedGustMPH,Humidity,HourlyPrecipIn,Conditions,Clouds,dailyrainin,SoftwareType,DateUTC
2013-04-13 00:01:00,46.8,41.6,29.64,NW,315,0.0,0.0,82,0.12,RA,FEW,0.00,WeatherDisplay:10.37,2013-04-13 07:01:00,
2013-04-13 00:06:00,46.8,41.6,29.63,NW,315,0.0,0.0,82,0.12,RA,FEW,0.00,WeatherDisplay:10.37,2013-04-13 07:06:00,
2013-04-13 00:11:00,46.8,41.6,29.64,NW,315,0.0,0.0,82,0.12,CLR,FEW,0.00,WeatherDisplay:10.37,2013-04-13 07:11:00,
2013-04-13 00:17:00,46.8,41.6,29.63,NW,315,0.0,0.0,82,0.10,RA,FEW,0.02,WeatherDisplay:10.37,2013-04-13 07:17:00,
2013-04-13 00:22:00,46.8,41.9,29.63,NW,315,0.0,0.0,83,0.10,RA,FEW,0.02,WeatherDisplay:10.37,2013-04-13 07:22:00,
2013-04-13 00:27:00,46.8,41.9,29.63,NW,315,0.0,0.0,83,0.10,,FEW,0.02,WeatherDisplay:10.37,2013-04-13 07:27:00,
2013-04-13 00:32:00,46.8,41.9,29.63,NW,315,0.0,0.0,83,0.08,CLR,FEW,0.04,WeatherDisplay:10.37,2013-04-13 07:32:00,
2013-04-13 00:38:00,46.6,41.7,29.63,WSW,248,1.1,1.1,83,0.08,RA,FEW,0.04,WeatherDisplay:10.37,2013-04-13 07:38:00,
2013-04-13 00:43:00,46.6,41.7,29.63,NW,315,0.0,0.0,83,0.08,,FEW,0.04,WeatherDisplay:10.37,2013-04-13 07:43:00,
2013-04-13 00:48:00,46.6,41.7,29.63,NW,315,0.0,0.0,83,0.08,CLR,FEW,0.04,WeatherDisplay:10.37,2013-04-13 07:48:00,
2013-04-13 00:53:00,46.6,41.7,29.63,NW,315,1.3,1.3,83,0.08,RA,FEW,0.06,WeatherDisplay:10.37,2013-04-13 07:53:00,
2013-04-13 00:58:00,46.6,41.7,29.62,NW,315,0.0,0.0,83,0.08,RA,FEW,0.06,WeatherDisplay:10.37,2013-04-13 07:58:00,
2013-04-13 01:03:00,46.2,41.7,29.62,NW,315,0.0,0.0,84,0.06,CLR,FEW,0.06,WeatherDisplay:10.37,2013-04-13 08:03:00,
2013-04-13 01:08:00,46.2,41.7,29.62,NW,315,0.0,0.0,84,0.06,CLR,FEW,0.06,WeatherDisplay:10.37,2013-04-13 08:08:00,
2013-04-13 01:13:00,46.2,41.7,29.62,NW,315,0.0,0.0,84,0.06,CLR,FEW,0.06,WeatherDisplay:10.37,2013-04-13 08:13:00,
2013-04-13 01:18:00,46.2,41.7,29.62,NW,315,0.0,0.0,84,0.04,CLR,FEW,0.06,WeatherDisplay:10.37,2013-04-13 08:18:00,
2013-04-13 01:23:00,46.2,41.7,29.62,NW,315,0.0,0.0,84,0.04,CLR,FEW,0.08,WeatherDisplay:10.37,2013-04-13 08:23:00,
2013-04-13 01:28:00,46.2,41.7,29.62,NW,315,0.0,0.0,84,0.06,RA,FEW,0.08,WeatherDisplay:10.37,2013-04-13 08:28:00,
2013-04-13 01:33:00,46.2,41.7,29.62,NW,315,5.6,5.6,84,0.04,RA,FEW,0.08,WeatherDisplay:10.37,2013-04-13 08:33:00,
2013-04-13 01:38:00,46.0,41.8,29.62,NW,315,4.6,5.3,85,0.04,CLR,FEW,0.08,WeatherDisplay:10.37,2013-04-13 08:38:00,
2013-04-13 01:44:00,46.0,41.8,29.62,NW,315,5.8,5.8,85,0.04,CLR,FEW,0.08,WeatherDisplay:10.37,2013-04-13 08:44:00,
2013-04-13 01:49:00,46.0,42.1,29.62,NNE,22,5.8,5.8,86,0.04,CLR,FEW,0.08,WeatherDisplay:10.37,2013-04-13 08:49:00,
2013-04-13 01:54:00,46.0,42.1,29.62,NNW,338,4.0,4.0,86,0.02,CLR,FEW,0.08,WeatherDisplay:10.37,2013-04-13 08:54:00,
2013-04-13 01:59:00,46.0,42.1,29.62,NNW,338,4.6,5.1,86,0.02,CLR,FEW,0.08,WeatherDisplay:10.37,2013-04-13 08:59:00,
2013-04-13 02:05:00,46.0,42.1,29.62,NNW,338,3.5,3.5,86,0.02,CLR,FEW,0.08,WeatherDisplay:10.37,2013-04-13 09:05:00,
2013-04-13 02:10:00,46.0,42.1,29.62,NNW,338,0.0,0.0,86,0.04,RA,FEW,0.10,WeatherDisplay:10.37,2013-04-13 09:10:00,
2013-04-13 02:15:00,46.0,42.1,29.61,NNW,338,0.0,0.0,86,0.04,RA,FEW,0.10,WeatherDisplay:10.37,2013-04-13 09:15:00,
2013-04-13 02:20:00,46.0,42.1,29.62,NNW,338,0.0,0.0,86,0.04,CLR,FEW,0.10,WeatherDisplay:10.37,2013-04-13 09:20:00,
2013-04-13 02:26:00,46.0,42.1,29.61,NE,45,2.5,2.5,86,0.02,CLR,FEW,0.10,WeatherDisplay:10.37,2013-04-13 09:26:00,
2013-04-13 02:32:00,46.0,42.1,29.61,NE,45,0.0,0.0,86,0.02,CLR,FEW,0.10,WeatherDisplay:10.37,2013-04-13 09:32:00,
2013-04-13 02:37:00,45.7,41.7,29.61,NE,45,0.0,0.0,86,0.02,CLR,FEW,0.10,WeatherDisplay:10.37,2013-04-13 09:37:00,
2013-04-13 02:43:00,45.7,41.7,29.61,NE,45,0.0,0.0,86,0.02,CLR,FEW,0.10,WeatherDisplay:10.37,2013-04-13 09:43:00,
2013-04-13 02:48:00,45.7,41.7,29.60,NE,45,0.0,0.0,86,0.02,CLR,FEW,0.10,WeatherDisplay:10.37,2013-04-13 09:48:00,
2013-04-13 02:53:00,45.7,41.4,29.60,NE,45,0.0,0.0,85,0.02,CLR,FEW,0.10,WeatherDisplay:10.37,2013-04-13 09:53:00,
2013-04-13 02:58:00,45.5,41.3,29.61,ESE,112,2.3,0.0,85,0.02,CLR,FEW,0.10,WeatherDisplay:10.37,2013-04-13 09:58:00,
2013-04-13 03:04:00,45.3,41.4,29.61,SE,135,3.5,3.5,86,0.02,CLR,FEW,0.10,WeatherDisplay:10.37,2013-04-13 10:04:00,
2013-04-13 03:09:00,45.1,41.2,29.61,SE,135,0.0,0.0,86,0.00,CLR,FEW,0.10,WeatherDisplay:10.37,2013-04-13 10:09:00,
2013-04-13 03:14:00,45.1,41.2,29.60,SE,135,1.1,1.6,86,0.00,CLR,FEW,0.10,WeatherDisplay:10.37,2013-04-13 10:14:00,
2013-04-13 03:20:00,45.1,41.2,29.61,SE,135,0.0,0.0,86,0.00,CLR,FEW,0.10,WeatherDisplay:10.37,2013-04-13 10:20:00,
2013-04-13 03:27:00,45.0,41.0,29.61,SE,135,0.0,0.0,86,0.00,CLR,FEW,0.10,WeatherDisplay:10.37,2013-04-13 10:27:00,
2013-04-13 03:32:00,45.0,41.3,29.61,SE,135,0.0,0.0,87,0.00,CLR,FEW,0.10,WeatherDisplay:10.37,2013-04-13 10:32:00,
2013-04-13 03:38:00,44.8,41.1,29.61,SE,135,0.0,0.0,87,0.00,CLR,FEW,0.10,WeatherDisplay:10.37,2013-04-13 10:38:00,
2013-04-13 03:43:00,44.4,40.8,29.61,ENE,68,0.0,0.0,87,0.00,CLR,FEW,0.10,WeatherDisplay:10.37,2013-04-13 10:43:00,
2013-04-13 03:48:00,44.4,40.8,29.61,ENE,68,0.0,0.0,87,0.00,CLR,FEW,0.10,WeatherDisplay:10.37,2013-04-13 10:48:00,
2013-04-13 03:53:00,44.2,40.6,29.61,ENE,68,0.0,1.7,87,0.00,CLR,FEW,0.10,WeatherDisplay:10.37,2013-04-13 10:53:00,
2013-04-13 03:58:00,43.9,40.3,29.61,ENE,68,0.0,0.0,87,0.00,CLR,FEW,0.10,WeatherDisplay:10.37,2013-04-13 10:58:00,
2013-04-13 04:03:00,43.9,40.3,29.61,ENE,68,0.0,0.0,87,0.00,CLR,FEW,0.10,WeatherDisplay:10.37,2013-04-13 11:03:00,
2013-04-13 04:08:00,43.9,40.3,29.61,ENE,68,0.0,0.0,87,0.00,CLR,FEW,0.10,WeatherDisplay:10.37,2013-04-13 11:08:00,
2013-04-13 04:13:00,43.0,39.4,29.62,ENE,68,0.0,0.0,87,0.00,CLR,FEW,0.10,WeatherDisplay:10.37,2013-04-13 11:13:00,
2013-04-13 04:19:00,42.8,39.2,29.61,ENE,68,0.0,0.0,87,0.00,CLR,FEW,0.10,WeatherDisplay:10.37,2013-04-13 11:19:00,
2013-04-13 04:24:00,42.8,39.2,29.62,ENE,68,0.0,0.0,87,0.00,CLR,FEW,0.10,WeatherDisplay:10.37,2013-04-13 11:24:00,
2013-04-13 04:29:00,42.6,39.0,29.62,ENE,68,0.0,0.0,87,0.00,CLR,FEW,0.10,WeatherDisplay:10.37,2013-04-13 11:29:00,
2013-04-13 04:34:00,42.6,39.0,29.62,ENE,68,0.0,0.0,87,0.00,CLR,FEW,0.10,WeatherDisplay:10.37,2013-04-13 11:34:00,
2013-04-13 04:39:00,42.4,38.8,29.63,ESE,112,2.3,2.3,87,0.00,CLR,FEW,0.10,WeatherDisplay:10.37,2013-04-13 11:39:00,
2013-04-13 04:44:00,42.1,38.2,29.63,SSE,158,0.0,0.0,86,0.00,CLR,FEW,0.10,WeatherDisplay:10.37,2013-04-13 11:44:00,
2013-04-13 04:50:00,42.1,38.2,29.62,SSE,158,0.0,0.0,86,0.00,CLR,FEW,0.10,WeatherDisplay:10.37,2013-04-13 11:50:00,
2013-04-13 04:55:00,41.9,38.3,29.62,SSE,158,0.0,0.0,87,0.00,CLR,FEW,0.10,WeatherDisplay:10.37,2013-04-13 11:55:00,
2013-04-13 05:00:00,41.9,38.3,29.62,South,180,2.3,2.3,87,0.00,CLR,FEW,0.10,WeatherDisplay:10.37,2013-04-13 12:00:00,
2013-04-13 05:05:00,41.7,38.1,29.62,South,180,0.0,0.0,87,0.00,CLR,FEW,0.10,WeatherDisplay:10.37,2013-04-13 12:05:00,
2013-04-13 05:10:00,41.5,38.0,29.62,East,90,0.0,0.0,87,0.00,CLR,FEW,0.10,WeatherDisplay:10.37,2013-04-13 12:10:00,
2013-04-13 05:15:00,41.2,37.6,29.63,East,90,0.0,0.0,87,0.00,CLR,FEW,0.10,WeatherDisplay:10.37,2013-04-13 12:15:00,
2013-04-13 05:20:00,41.0,37.4,29.62,East,90,0.0,0.0,87,0.00,CLR,FEW,0.10,WeatherDisplay:10.37,2013-04-13 12:20:00,
2013-04-13 05:25:00,41.0,37.4,29.63,East,90,0.0,0.0,87,0.00,CLR,FEW,0.10,WeatherDisplay:10.37,2013-04-13 12:25:00,
2013-04-13 05:32:00,41.0,37.4,29.62,East,90,0.0,0.0,87,0.00,CLR,FEW,0.10,WeatherDisplay:10.37,2013-04-13 12:32:00,
2013-04-13 05:37:00,41.0,37.4,29.62,East,90,0.0,0.0,87,0.00,CLR,FEW,0.10,WeatherDisplay:10.37,2013-04-13 12:37:00,
2013-04-13 05:43:00,41.0,37.4,29.63,South,180,0.0,0.0,87,0.00,CLR,FEW,0.10,WeatherDisplay:10.37,2013-04-13 12:43:00,
2013-04-13 05:48:00,41.2,37.6,29.63,South,180,0.0,0.0,87,0.00,CLR,FEW,0.10,WeatherDisplay:10.37,2013-04-13 12:48:00,
2013-04-13 05:53:00,41.4,38.1,29.62,South,180,0.0,0.0,88,0.00,CLR,FEW,0.10,WeatherDisplay:10.37,2013-04-13 12:53:00,
2013-04-13 05:58:00,41.4,38.1,29.62,ESE,112,0.0,0.0,88,0.00,CLR,FEW,0.10,WeatherDisplay:10.37,2013-04-13 12:58:00,
2013-04-13 06:04:00,41.4,38.1,29.63,ESE,112,0.0,0.0,88,0.00,CLR,FEW,0.10,WeatherDisplay:10.37,2013-04-13 13:04:00,
2013-04-13 06:09:00,41.5,38.3,29.63,East,90,0.0,0.0,88,0.00,CLR,FEW,0.10,WeatherDisplay:10.37,2013-04-13 13:09:00,
2013-04-13 06:14:00,41.5,38.3,29.63,NE,45,0.0,0.0,88,0.00,CLR,FEW,0.10,WeatherDisplay:10.37,2013-04-13 13:14:00,
2013-04-13 06:20:00,41.5,38.3,29.63,NE,45,0.0,0.0,88,0.00,CLR,FEW,0.10,WeatherDisplay:10.37,2013-04-13 13:20:00,
2013-04-13 06:25:00,41.5,38.3,29.64,NE,45,0.0,0.0,88,0.00,CLR,FEW,0.10,WeatherDisplay:10.37,2013-04-13 13:25:00,
2013-04-13 06:30:00,41.7,38.4,29.64,NW,315,4.9,5.0,88,0.00,CLR,FEW,0.10,WeatherDisplay:10.37,2013-04-13 13:30:00,
2013-04-13 06:35:00,41.7,38.4,29.64,NW,315,6.9,6.9,88,0.00,CLR,FEW,0.10,WeatherDisplay:10.37,2013-04-13 13:35:00,
2013-04-13 06:40:00,41.5,38.5,29.65,NNW,338,8.1,8.4,89,0.00,CLR,FEW,0.10,WeatherDisplay:10.37,2013-04-13 13:40:00,
2013-04-13 06:45:00,41.7,38.7,29.65,NNE,22,6.9,6.9,89,0.00,CLR,FEW,0.10,WeatherDisplay:10.37,2013-04-13 13:45:00,
2013-04-13 06:51:00,41.7,38.7,29.65,WNW,292,6.9,6.9,89,0.00,CLR,FEW,0.10,WeatherDisplay:10.37,2013-04-13 13:51:00,
2013-04-13 06:57:00,41.7,38.7,29.66,SW,225,6.9,0.0,89,0.00,CLR,FEW,0.10,WeatherDisplay:10.37,2013-04-13 13:57:00,
2013-04-13 07:02:00,41.7,38.7,29.67,WNW,292,8.1,8.1,89,0.00,CLR,FEW,0.10,WeatherDisplay:10.37,2013-04-13 14:02:00,
2013-04-13 07:07:00,41.9,38.6,29.68,WNW,292,5.8,5.8,88,0.00,CLR,FEW,0.10,WeatherDisplay:10.37,2013-04-13 14:07:00,
2013-04-13 07:12:00,41.9,38.3,29.68,NW,315,6.3,6.3,87,0.00,CLR,FEW,0.10,WeatherDisplay:10.37,2013-04-13 14:12:00,
2013-04-13 07:18:00,42.1,37.6,29.68,WNW,292,16.1,16.3,84,0.00,CLR,FEW,0.10,WeatherDisplay:10.37,2013-04-13 14:18:00,
2013-04-13 07:23:00,42.1,36.4,29.68,North,0,5.8,5.8,80,0.00,CLR,FEW,0.10,WeatherDisplay:10.37,2013-04-13 14:23:00,
2013-04-13 07:28:00,42.4,36.4,29.68,WNW,292,10.4,10.5,79,0.00,CLR,FEW,0.10,WeatherDisplay:10.37,2013-04-13 14:28:00,
2013-04-13 07:33:00,42.1,35.4,29.69,NW,315,6.9,6.9,77,0.00,CLR,FEW,0.10,WeatherDisplay:10.37,2013-04-13 14:33:00,
2013-04-13 07:38:00,42.4,35.4,29.69,NNW,338,2.7,2.7,76,0.00,CLR,FEW,0.10,WeatherDisplay:10.37,2013-04-13 14:38:00,
2013-04-13 07:43:00,42.4,35.4,29.69,West,270,0.0,0.0,76,0.00,CLR,FEW,0.10,WeatherDisplay:10.37,2013-04-13 14:43:00,
2013-04-13 07:48:00,42.6,35.6,29.69,West,270,0.0,0.0,76,0.00,CLR,FEW,0.10,WeatherDisplay:10.37,2013-04-13 14:48:00,
2013-04-13 07:53:00,42.4,35.4,29.70,West,270,1.6,1.6,76,0.00,CLR,FEW,0.10,WeatherDisplay:10.37,2013-04-13 14:53:00,
2013-04-13 07:59:00,42.4,35.7,29.70,West,270,0.0,0.0,77,0.00,CLR,FEW,0.10,WeatherDisplay:10.37,2013-04-13 14:59:00,
2013-04-13 08:04:00,42.4,36.1,29.70,West,270,0.0,0.0,78,0.00,CLR,FEW,0.10,WeatherDisplay:10.37,2013-04-13 15:04:00,
2013-04-13 08:09:00,42.4,36.1,29.70,SSE,158,3.8,3.8,78,0.00,CLR,FEW,0.10,WeatherDisplay:10.37,2013-04-13 15:09:00,
2013-04-13 08:15:00,42.4,34.7,29.70,SSE,158,5.8,5.8,74,0.00,CLR,FEW,0.10,WeatherDisplay:10.37,2013-04-13 15:15:00,
2013-04-13 08:20:00,42.4,34.4,29.70,SSE,158,0.0,0.0,73,0.00,CLR,FEW,0.10,WeatherDisplay:10.37,2013-04-13 15:20:00,
2013-04-13 08:25:00,42.6,34.2,29.71,SSE,158,0.0,0.0,72,0.00,CLR,FEW,0.10,WeatherDisplay:10.37,2013-04-13 15:25:00,
2013-04-13 08:31:00,42.6,34.6,29.71,SE,135,0.0,0.0,73,0.00,CLR,FEW,0.10,WeatherDisplay:10.37,2013-04-13 15:31:00,
2013-04-13 08:37:00,42.6,34.9,29.72,SE,135,0.0,0.0,74,0.00,CLR,FEW,0.10,WeatherDisplay:10.37,2013-04-13 15:37:00,
2013-04-13 08:42:00,42.6,35.2,29.72,SSE,158,10.9,10.9,75,0.00,CLR,FEW,0.10,WeatherDisplay:10.37,2013-04-13 15:42:00,
2013-04-13 08:47:00,42.4,34.4,29.72,South,180,11.5,11.5,73,0.00,CLR,FEW,0.10,WeatherDisplay:10.37,2013-04-13 15:47:00,
2013-04-13 08:52:00,42.4,33.7,29.72,SSW,202,0.0,0.0,71,0.00,CLR,FEW,0.10,WeatherDisplay:10.37,2013-04-13 15:52:00,
2013-04-13 08:58:00,42.1,32.6,29.72,South,180,0.0,0.0,69,0.00,CLR,FEW,0.10,WeatherDisplay:10.37,2013-04-13 15:58:00,
2013-04-13 09:03:00,42.1,33.0,29.72,SE,135,3.8,3.8,70,0.00,CLR,FEW,0.10,WeatherDisplay:10.37,2013-04-13 16:03:00,
2013-04-13 09:08:00,42.1,32.6,29.72,SE,135,6.9,6.9,69,0.00,CLR,FEW,0.10,WeatherDisplay:10.37,2013-04-13 16:08:00,
2013-04-13 09:14:00,41.9,32.8,29.72,ESE,112,5.1,5.1,70,0.00,CLR,FEW,0.10,WeatherDisplay:10.37,2013-04-13 16:14:00,
2013-04-13 09:19:00,41.9,32.5,29.72,ESE,112,4.6,4.7,69,0.00,CLR,FEW,0.10,WeatherDisplay:10.37,2013-04-13 16:19:00,
2013-04-13 09:24:00,42.1,33.0,29.72,ESE,112,2.5,2.5,70,0.00,CLR,FEW,0.10,WeatherDisplay:10.37,2013-04-13 16:24:00,
2013-04-13 09:29:00,42.3,33.2,29.72,NE,45,2.7,2.7,70,0.00,CLR,FEW,0.10,WeatherDisplay:10.37,2013-04-13 16:29:00,
2013-04-13 09:34:00,42.4,33.0,29.72,East,90,2.3,2.3,69,0.00,CLR,FEW,0.10,WeatherDisplay:10.37,2013-04-13 16:34:00,
2013-04-13 09:39:00,42.4,33.3,29.72,SSE,158,6.9,6.9,70,0.00,CLR,FEW,0.10,WeatherDisplay:10.37,2013-04-13 16:39:00,
2013-04-13 09:44:00,42.4,33.7,29.72,South,180,7.4,7.4,71,0.00,CLR,FEW,0.10,WeatherDisplay:10.37,2013-04-13 16:44:00,
2013-04-13 09:49:00,42.4,33.3,29.75,West,270,6.3,6.3,70,0.00,CLR,FEW,0.10,WeatherDisplay:10.37,2013-04-13 16:49:00,
2013-04-13 09:54:00,41.9,31.7,29.75,WNW,292,12.1,12.1,67,0.00,CLR,FEW,0.10,WeatherDisplay:10.37,2013-04-13 16:54:00,
2013-04-13 09:59:00,40.8,31.8,29.74,NW,315,17.7,17.7,70,0.02,RA,FEW,0.12,WeatherDisplay:10.37,2013-04-13 16:59:00,
2013-04-13 10:04:00,40.1,31.8,29.74,NNW,338,12.7,12.7,72,0.02,RA,FEW,0.12,WeatherDisplay:10.37,2013-04-13 17:04:00,
2013-04-13 10:09:00,40.3,32.3,29.74,NW,315,12.7,12.7,73,0.02,,FEW,0.12,WeatherDisplay:10.37,2013-04-13 17:09:00,
2013-04-13 10:15:00,39.9,32.6,29.74,NNW,338,11.5,11.5,75,0.02,CLR,FEW,0.12,WeatherDisplay:10.37,2013-04-13 17:15:00,
2013-04-13 10:21:00,39.9,32.6,29.74,NNE,22,15.0,15.0,75,0.02,CLR,FEW,0.12,WeatherDisplay:10.37,2013-04-13 17:21:00,
2013-04-13 10:26:00,40.1,32.8,29.74,NNE,22,8.3,8.3,75,0.02,CLR,FEW,0.12,WeatherDisplay:10.37,2013-04-13 17:26:00,
2013-04-13 10:32:00,41.2,33.9,29.73,East,90,6.9,6.9,75,0.02,CLR,FEW,0.12,WeatherDisplay:10.37,2013-04-13 17:32:00,
2013-04-13 10:37:00,42.4,35.1,29.73,ENE,68,4.6,4.6,75,0.02,CLR,FEW,0.12,WeatherDisplay:10.37,2013-04-13 17:37:00,
2013-04-13 10:42:00,44.1,36.0,29.73,ESE,112,5.1,5.1,73,0.02,CLR,FEW,0.12,WeatherDisplay:10.37,2013-04-13 17:42:00,
2013-04-13 10:47:00,44.6,35.8,29.73,West,270,6.9,6.9,71,0.02,CLR,FEW,0.12,WeatherDisplay:10.37,2013-04-13 17:47:00,
2013-04-13 10:53:00,44.8,34.9,29.73,North,0,4.9,5.0,68,0.02,CLR,FEW,0.12,WeatherDisplay:10.37,2013-04-13 17:53:00,
2013-04-13 10:59:00,45.1,35.2,29.73,NE,45,1.1,1.1,68,0.00,CLR,FEW,0.12,WeatherDisplay:10.37,2013-04-13 17:59:00,
2013-04-13 11:04:00,45.7,35.3,29.73,NNW,338,7.2,7.3,67,0.00,CLR,FEW,0.12,WeatherDisplay:10.37,2013-04-13 18:04:00,
2013-04-13 11:09:00,45.3,35.0,29.75,NNW,338,13.0,13.0,67,0.00,CLR,FEW,0.12,WeatherDisplay:10.37,2013-04-13 18:09:00,
2013-04-13 11:14:00,44.4,31.0,29.74,WNW,292,15.0,15.0,59,0.00,CLR,FEW,0.12,WeatherDisplay:10.37,2013-04-13 18:14:00,
2013-04-13 11:19:00,43.9,29.6,29.74,NW,315,11.5,11.5,57,0.00,CLR,FEW,0.12,WeatherDisplay:10.37,2013-04-13 18:19:00,
2013-04-13 11:24:00,43.9,28.7,29.73,WNW,292,8.1,8.1,55,0.00,CLR,FEW,0.12,WeatherDisplay:10.37,2013-04-13 18:24:00,
2013-04-13 11:27:00,44.2,30.8,29.73,West,270,3.5,3.5,59,0.00,CLR,FEW,0.12,WeatherDisplay:10.37,2013-04-13 18:27:00,
2013-04-13 11:32:00,45.3,32.2,29.72,South,180,3.5,3.5,60,0.00,CLR,FEW,0.12,WeatherDisplay:10.37,2013-04-13 18:32:00,
2013-04-13 11:38:00,46.9,33.3,29.72,SSE,158,3.5,3.5,59,0.00,CLR,FEW,0.12,WeatherDisplay:10.37,2013-04-13 18:38:00,
2013-04-13 11:43:00,47.8,33.3,29.72,SW,225,5.8,5.8,57,0.00,CLR,FEW,0.12,WeatherDisplay:10.37,2013-04-13 18:43:00,
2013-04-13 11:48:00,48.9,34.8,29.73,SSE,158,8.1,8.1,58,0.00,CLR,FEW,0.12,WeatherDisplay:10.37,2013-04-13 18:48:00,
2013-04-13 11:53:00,49.3,32.9,29.73,West,270,6.9,6.9,53,0.00,CLR,FEW,0.12,WeatherDisplay:10.37,2013-04-13 18:53:00,
2013-04-13 11:58:00,49.1,32.7,29.73,SE,135,9.2,9.2,53,0.00,CLR,FEW,0.12,WeatherDisplay:10.37,2013-04-13 18:58:00,
2013-04-13 12:03:00,48.9,32.0,29.74,West,270,5.8,5.8,52,0.00,CLR,FEW,0.12,WeatherDisplay:10.37,2013-04-13 19:03:00,
2013-04-13 12:08:00,48.6,29.7,29.73,NNW,338,13.8,13.8,48,0.00,CLR,FEW,0.12,WeatherDisplay:10.37,2013-04-13 19:08:00,
2013-04-13 12:13:00,48.6,29.7,29.73,SSW,202,10.4,10.4,48,0.00,CLR,FEW,0.12,WeatherDisplay:10.37,2013-04-13 19:13:00,
2013-04-13 12:18:00,49.5,31.6,29.74,NNW,338,8.3,8.3,50,0.00,CLR,FEW,0.12,WeatherDisplay:10.37,2013-04-13 19:18:00,
2013-04-13 12:23:00,49.6,29.1,29.74,WNW,292,13.8,14.3,45,0.00,CLR,FEW,0.12,WeatherDisplay:10.37,2013-04-13 19:23:00,
2013-04-13 12:28:00,49.3,28.3,29.74,WNW,292,3.6,3.6,44,0.00,CLR,FEW,0.12,WeatherDisplay:10.37,2013-04-13 19:28:00,
2013-04-13 12:33:00,49.8,30.4,29.74,WSW,248,5.8,5.8,47,0.00,CLR,FEW,0.12,WeatherDisplay:10.37,2013-04-13 19:33:00,
2013-04-13 12:38:00,50.7,31.7,29.74,West,270,4.6,4.8,48,0.00,CLR,FEW,0.12,WeatherDisplay:10.37,2013-04-13 19:38:00,
2013-04-13 12:43:00,50.5,31.6,29.74,WNW,292,6.9,6.9,48,0.00,CLR,FEW,0.12,WeatherDisplay:10.37,2013-04-13 19:43:00,
2013-04-13 12:48:00,50.9,32.4,29.74,WSW,248,5.8,6.3,49,0.00,CLR,FEW,0.12,WeatherDisplay:10.37,2013-04-13 19:48:00,
2013-04-13 12:53:00,51.6,28.7,29.74,WNW,292,19.6,19.6,41,0.00,CLR,FEW,0.12,WeatherDisplay:10.37,2013-04-13 19:53:00,
2013-04-13 12:58:00,50.7,27.8,29.74,NNW,338,13.8,13.8,41,0.00,CLR,FEW,0.12,WeatherDisplay:10.37,2013-04-13 19:58:00,
2013-04-13 13:03:00,50.2,27.4,29.74,NW,315,15.0,15.0,41,0.00,CLR,FEW,0.12,WeatherDisplay:10.37,2013-04-13 20:03:00,
2013-04-13 13:08:00,49.6,27.5,29.74,NNW,338,21.9,21.9,42,0.00,CLR,FEW,0.12,WeatherDisplay:10.37,2013-04-13 20:08:00,
2013-04-13 13:13:00,49.3,28.3,29.74,West,270,11.5,11.5,44,0.00,CLR,FEW,0.12,WeatherDisplay:10.37,2013-04-13 20:13:00,
2013-04-13 13:18:00,49.6,27.5,29.75,West,270,11.8,11.8,42,0.00,CLR,FEW,0.12,WeatherDisplay:10.37,2013-04-13 20:18:00,
2013-04-13 13:23:00,48.9,28.5,29.75,WNW,292,19.6,19.6,45,0.00,CLR,FEW,0.12,WeatherDisplay:10.37,2013-04-13 20:23:00,
2013-04-13 13:28:00,48.9,29.0,29.75,WNW,292,16.1,16.1,46,0.00,CLR,FEW,0.12,WeatherDisplay:10.37,2013-04-13 20:28:00,
2013-04-13 13:33:00,48.9,26.8,29.75,WNW,292,10.4,10.4,42,0.00,CLR,FEW,0.12,WeatherDisplay:10.37,2013-04-13 20:33:00,
2013-04-13 13:38:00,48.7,28.9,29.75,NW,315,11.5,11.5,46,0.00,CLR,FEW,0.12,WeatherDisplay:10.37,2013-04-13 20:38:00,
2013-04-13 13:43:00,48.7,28.3,29.75,North,0,11.5,11.5,45,0.00,CLR,FEW,0.12,WeatherDisplay:10.37,2013-04-13 20:43:00,
2013-04-13 13:48:00,49.1,27.5,29.75,NW,315,10.5,10.5,43,0.00,CLR,FEW,0.12,WeatherDisplay:10.37,2013-04-13 20:48:00,
2013-04-13 13:53:00,49.5,27.9,29.75,NW,315,12.7,12.7,43,0.00,CLR,FEW,0.12,WeatherDisplay:10.37,2013-04-13 20:53:00,
2013-04-13 13:58:00,49.6,28.6,29.75,NW,315,19.6,19.6,44,0.00,CLR,FEW,0.12,WeatherDisplay:10.37,2013-04-13 20:58:00,
2013-04-13 14:03:00,49.3,26.0,29.75,WNW,292,13.8,14.1,40,0.00,CLR,FEW,0.12,WeatherDisplay:10.37,2013-04-13 21:03:00,
2013-04-13 14:08:00,49.6,28.0,29.74,WNW,292,17.3,17.3,43,0.00,CLR,FEW,0.12,WeatherDisplay:10.37,2013-04-13 21:08:00,
2013-04-13 14:13:00,50.2,28.5,29.75,West,270,9.2,9.2,43,0.00,CLR,FEW,0.12,WeatherDisplay:10.37,2013-04-13 21:13:00,
2013-04-13 14:18:00,50.2,28.5,29.75,NW,315,12.7,12.7,43,0.00,CLR,FEW,0.12,WeatherDisplay:10.37,2013-04-13 21:18:00,
2013-04-13 14:23:00,49.8,27.0,29.75,West,270,8.1,8.1,41,0.00,CLR,FEW,0.12,WeatherDisplay:10.37,2013-04-13 21:23:00,
2013-04-13 14:28:00,50.5,28.8,29.75,WNW,292,4.6,4.6,43,0.00,CLR,FEW,0.12,WeatherDisplay:10.37,2013-04-13 21:28:00,
2013-04-13 14:33:00,50.7,28.4,29.74,SSW,202,10.4,10.4,42,0.00,CLR,FEW,0.12,WeatherDisplay:10.37,2013-04-13 21:33:00,
2013-04-13 14:38:00,50.5,27.7,29.75,West,270,13.8,13.8,41,0.00,CLR,FEW,0.12,WeatherDisplay:10.37,2013-04-13 21:38:00,
2013-04-13 14:43:00,50.5,25.8,29.75,NW,315,16.3,16.3,38,0.00,CLR,FEW,0.12,WeatherDisplay:10.37,2013-04-13 21:43:00,
2013-04-13 14:48:00,50.4,26.9,29.75,NNW,338,13.0,13.0,40,0.00,CLR,FEW,0.12,WeatherDisplay:10.37,2013-04-13 21:48:00,
2013-04-13 14:53:00,50.4,27.5,29.75,SW,225,12.7,12.7,41,0.00,CLR,FEW,0.12,WeatherDisplay:10.37,2013-04-13 21:53:00,
2013-04-13 14:58:00,50.2,27.9,29.76,WNW,292,10.4,10.4,42,0.00,CLR,FEW,0.12,WeatherDisplay:10.37,2013-04-13 21:58:00,
2013-04-13 15:03:00,49.8,28.2,29.76,SW,225,13.2,13.2,43,0.00,CLR,FEW,0.12,WeatherDisplay:10.37,2013-04-13 22:03:00,
2013-04-13 15:08:00,49.8,29.3,29.76,West,270,7.4,7.4,45,0.00,CLR,FEW,0.12,WeatherDisplay:10.37,2013-04-13 22:08:00,
2013-04-13 15:13:00,49.6,28.6,29.76,WNW,292,9.2,9.2,44,0.00,CLR,FEW,0.12,WeatherDisplay:10.37,2013-04-13 22:13:00,
2013-04-13 15:18:00,49.3,29.4,29.76,WNW,292,29.7,29.7,46,0.00,CLR,FEW,0.12,WeatherDisplay:10.37,2013-04-13 22:18:00,
2013-04-13 15:23:00,47.5,28.7,29.78,West,270,20.7,20.7,48,0.00,CLR,FEW,0.12,WeatherDisplay:10.37,2013-04-13 22:23:00,
2013-04-13 15:28:00,46.2,30.0,29.78,WNW,292,13.8,13.8,53,0.00,CLR,FEW,0.12,WeatherDisplay:10.37,2013-04-13 22:28:00,
2013-04-13 15:33:00,46.0,30.3,29.80,NW,315,14.3,14.3,54,0.00,CLR,FEW,0.12,WeatherDisplay:10.37,2013-04-13 22:33:00,
2013-04-13 15:38:00,45.0,30.2,29.79,WNW,292,4.6,4.8,56,0.00,CLR,FEW,0.12,WeatherDisplay:10.37,2013-04-13 22:38:00,
2013-04-13 15:43:00,45.0,30.6,29.78,WSW,248,4.6,4.6,57,0.00,CLR,FEW,0.12,WeatherDisplay:10.37,2013-04-13 22:43:00,
2013-04-13 15:48:00,45.0,31.5,29.78,WSW,248,0.0,0.0,59,0.00,CLR,FEW,0.12,WeatherDisplay:10.37,2013-04-13 22:48:00,
2013-04-13 15:53:00,45.1,31.7,29.78,West,270,1.8,1.8,59,0.00,CLR,FEW,0.12,WeatherDisplay:10.37,2013-04-13 22:53:00,
2013-04-13 15:58:00,45.1,31.7,29.78,SW,225,3.5,3.5,59,0.00,CLR,FEW,0.12,WeatherDisplay:10.37,2013-04-13 22:58:00,
2013-04-13 16:03:00,45.7,31.7,29.76,SW,225,0.0,0.0,58,0.00,CLR,FEW,0.12,WeatherDisplay:10.37,2013-04-13 23:03:00,
2013-04-13 16:08:00,45.3,31.8,29.76,NE,45,5.1,5.1,59,0.00,CLR,FEW,0.12,WeatherDisplay:10.37,2013-04-13 23:08:00,
2013-04-13 16:13:00,45.1,32.1,29.76,ENE,68,3.5,3.5,60,0.00,CLR,FEW,0.12,WeatherDisplay:10.37,2013-04-13 23:13:00,
2013-04-13 16:18:00,45.0,31.9,29.76,ESE,112,6.9,6.9,60,0.00,CLR,FEW,0.12,WeatherDisplay:10.37,2013-04-13 23:18:00,
2013-04-13 16:23:00,44.6,31.6,29.77,North,0,6.9,7.2,60,0.00,CLR,FEW,0.12,WeatherDisplay:10.37,2013-04-13 23:23:00,
2013-04-13 16:28:00,44.4,31.8,29.77,NNE,22,10.4,10.4,61,0.00,CLR,FEW,0.12,WeatherDisplay:10.37,2013-04-13 23:28:00,
2013-04-13 16:33:00,44.4,31.4,29.77,SE,135,3.6,3.6,60,0.00,CLR,FEW,0.12,WeatherDisplay:10.37,2013-04-13 23:33:00,
2013-04-13 16:38:00,44.4,31.4,29.77,SSE,158,0.0,0.0,60,0.00,CLR,FEW,0.12,WeatherDisplay:10.37,2013-04-13 23:38:00,
2013-04-13 16:43:00,44.4,31.8,29.77,SSE,158,0.0,0.0,61,0.00,CLR,FEW,0.12,WeatherDisplay:10.37,2013-04-13 23:43:00,
2013-04-13 16:48:00,45.0,32.3,29.77,SSE,158,3.5,3.5,61,0.00,CLR,FEW,0.12,WeatherDisplay:10.37,2013-04-13 23:48:00,
2013-04-13 16:53:00,45.0,31.9,29.76,East,90,5.4,5.4,60,0.00,CLR,FEW,0.12,WeatherDisplay:10.37,2013-04-13 23:53:00,
2013-04-13 16:58:00,45.0,31.9,29.76,NE,45,6.9,6.9,60,0.00,CLR,FEW,0.12,WeatherDisplay:10.37,2013-04-13 23:58:00,
2013-04-13 17:03:00,45.0,31.9,29.76,East,90,0.0,0.0,60,0.00,CLR,FEW,0.12,WeatherDisplay:10.37,2013-04-14 00:03:00,
2013-04-13 17:08:00,45.3,32.2,29.76,SE,135,3.6,3.6,60,0.00,CLR,FEW,0.12,WeatherDisplay:10.37,2013-04-14 00:08:00,
2013-04-13 17:13:00,45.5,32.4,29.76,SSE,158,4.6,4.6,60,0.00,CLR,FEW,0.12,WeatherDisplay:10.37,2013-04-14 00:13:00,
2013-04-13 17:18:00,45.7,32.6,29.76,SSE,158,0.0,0.0,60,0.00,CLR,FEW,0.12,WeatherDisplay:10.37,2013-04-14 00:18:00,
2013-04-13 17:23:00,46.0,33.3,29.76,SSE,158,1.1,1.3,61,0.00,CLR,FEW,0.12,WeatherDisplay:10.37,2013-04-14 00:23:00,
2013-04-13 17:28:00,46.0,33.3,29.76,NW,315,9.2,9.2,61,0.00,CLR,FEW,0.12,WeatherDisplay:10.37,2013-04-14 00:28:00,
2013-04-13 17:33:00,46.0,32.9,29.77,North,0,6.0,6.0,60,0.00,CLR,FEW,0.12,WeatherDisplay:10.37,2013-04-14 00:33:00,
2013-04-13 17:38:00,46.0,33.3,29.76,North,0,3.5,3.5,61,0.00,CLR,FEW,0.12,WeatherDisplay:10.37,2013-04-14 00:38:00,
2013-04-13 17:43:00,46.0,33.3,29.77,NNW,338,6.9,6.9,61,0.00,CLR,FEW,0.12,WeatherDisplay:10.37,2013-04-14 00:43:00,
2013-04-13 17:48:00,45.7,33.0,29.77,NW,315,6.0,6.0,61,0.00,CLR,FEW,0.12,WeatherDisplay:10.37,2013-04-14 00:48:00,
2013-04-13 17:53:00,45.7,33.4,29.77,WSW,248,2.3,2.3,62,0.00,CLR,FEW,0.12,WeatherDisplay:10.37,2013-04-14 00:53:00,
2013-04-13 17:58:00,46.2,33.9,29.77,NW,315,6.9,6.9,62,0.00,CLR,FEW,0.12,WeatherDisplay:10.37,2013-04-14 00:58:00,
2013-04-13 18:03:00,46.6,34.2,29.77,NNE,22,0.0,0.0,62,0.00,CLR,FEW,0.12,WeatherDisplay:10.37,2013-04-14 01:03:00,
2013-04-13 18:08:00,47.8,33.8,29.77,NW,315,7.2,7.2,58,0.00,CLR,FEW,0.12,WeatherDisplay:10.37,2013-04-14 01:08:00,
2013-04-13 18:13:00,48.7,33.3,29.77,NNW,338,8.1,8.1,55,0.00,CLR,FEW,0.12,WeatherDisplay:10.37,2013-04-14 01:13:00,
2013-04-13 18:18:00,49.6,32.7,29.77,West,270,6.9,6.9,52,0.00,CLR,FEW,0.12,WeatherDisplay:10.37,2013-04-14 01:18:00,
2013-04-13 18:23:00,50.5,32.1,29.77,WSW,248,6.9,6.9,49,0.00,CLR,FEW,0.12,WeatherDisplay:10.37,2013-04-14 01:23:00,
2013-04-13 18:28:00,50.9,32.4,29.77,WNW,292,4.6,4.6,49,0.00,CLR,FEW,0.12,WeatherDisplay:10.37,2013-04-14 01:28:00,
2013-04-13 18:33:00,50.7,31.7,29.77,WNW,292,6.9,6.9,48,0.00,CLR,FEW,0.12,WeatherDisplay:10.37,2013-04-14 01:33:00,
2013-04-13 18:38:00,50.4,30.9,29.77,NW,315,5.8,7.4,47,0.00,CLR,FEW,0.12,WeatherDisplay:10.37,2013-04-14 01:38:00,
2013-04-13 18:43:00,49.8,29.8,29.78,WSW,248,8.3,8.3,46,0.00,CLR,FEW,0.12,WeatherDisplay:10.37,2013-04-14 01:43:00,
2013-04-13 18:48:00,49.5,30.0,29.78,WSW,248,5.8,5.8,47,0.00,CLR,FEW,0.12,WeatherDisplay:10.37,2013-04-14 01:48:00,
2013-04-13 18:53:00,49.1,30.2,29.79,West,270,6.9,6.9,48,0.00,CLR,FEW,0.12,WeatherDisplay:10.37,2013-04-14 01:53:00,
2013-04-13 18:58:00,48.7,29.9,29.78,NW,315,8.1,8.1,48,0.00,CLR,FEW,0.12,WeatherDisplay:10.37,2013-04-14 01:58:00,
2013-04-13 19:03:00,48.2,28.9,29.78,WSW,248,6.9,6.9,47,0.00,CLR,FEW,0.12,WeatherDisplay:10.37,2013-04-14 02:03:00,
2013-04-13 19:08:00,48.0,29.2,29.79,WNW,292,5.8,7.3,48,0.00,CLR,FEW,0.12,WeatherDisplay:10.37,2013-04-14 02:08:00,
2013-04-13 19:13:00,48.0,29.2,29.79,West,270,6.9,6.9,48,0.00,CLR,FEW,0.12,WeatherDisplay:10.37,2013-04-14 02:13:00,
2013-04-13 19:18:00,47.5,29.7,29.79,South,180,2.3,2.3,50,0.00,CLR,FEW,0.12,WeatherDisplay:10.37,2013-04-14 02:18:00,
2013-04-13 19:23:00,47.3,30.1,29.78,South,180,0.0,0.0,51,0.00,CLR,FEW,0.12,WeatherDisplay:10.37,2013-04-14 02:23:00,
2013-04-13 19:28:00,47.1,30.4,29.78,South,180,2.3,2.3,52,0.00,CLR,FEW,0.12,WeatherDisplay:10.37,2013-04-14 02:28:00,
2013-04-13 19:33:00,46.6,30.3,29.79,South,180,0.0,0.0,53,0.00,CLR,FEW,0.12,WeatherDisplay:10.37,2013-04-14 02:33:00,
2013-04-13 19:38:00,46.2,30.0,29.79,South,180,0.0,3.4,53,0.00,CLR,FEW,0.12,WeatherDisplay:10.37,2013-04-14 02:38:00,
2013-04-13 19:43:00,45.9,30.1,29.80,South,180,4.6,4.6,54,0.00,CLR,FEW,0.12,WeatherDisplay:10.37,2013-04-14 02:43:00,
2013-04-13 19:48:00,45.5,29.8,29.79,SSE,158,4.6,4.6,54,0.00,CLR,FEW,0.12,WeatherDisplay:10.37,2013-04-14 02:48:00,
2013-04-13 19:53:00,45.3,29.6,29.80,South,180,3.4,3.4,54,0.00,CLR,FEW,0.12,WeatherDisplay:10.37,2013-04-14 02:53:00,
2013-04-13 19:58:00,45.3,29.6,29.80,South,180,6.9,7.4,54,0.00,CLR,FEW,0.12,WeatherDisplay:10.37,2013-04-14 02:58:00,
2013-04-13 20:03:00,45.5,29.8,29.80,SSW,202,4.6,4.6,54,0.00,CLR,FEW,0.12,WeatherDisplay:10.37,2013-04-14 03:03:00,
2013-04-13 20:08:00,45.5,29.8,29.81,SSW,202,2.3,2.3,54,0.00,CLR,FEW,0.12,WeatherDisplay:10.37,2013-04-14 03:08:00,
2013-04-13 20:13:00,45.5,29.8,29.80,SSW,202,0.0,0.0,54,0.00,CLR,FEW,0.12,WeatherDisplay:10.37,2013-04-14 03:13:00,
2013-04-13 20:18:00,45.3,29.6,29.80,SSW,202,0.0,0.0,54,0.00,CLR,FEW,0.12,WeatherDisplay:10.37,2013-04-14 03:18:00,
2013-04-13 20:23:00,45.1,29.5,29.81,SW,225,4.6,4.6,54,0.00,CLR,FEW,0.12,WeatherDisplay:10.37,2013-04-14 03:23:00,
2013-04-13 20:28:00,45.1,29.5,29.81,South,180,4.6,4.6,54,0.00,CLR,FEW,0.12,WeatherDisplay:10.37,2013-04-14 03:28:00,
2013-04-13 20:33:00,45.0,29.3,29.81,South,180,0.0,0.0,54,0.00,CLR,FEW,0.12,WeatherDisplay:10.37,2013-04-14 03:33:00,
2013-04-13 20:38:00,45.0,29.8,29.82,South,180,0.0,0.0,55,0.00,CLR,FEW,0.12,WeatherDisplay:10.37,2013-04-14 03:38:00,
2013-04-13 20:43:00,44.4,29.2,29.82,South,180,3.6,3.6,55,0.00,CLR,FEW,0.12,WeatherDisplay:10.37,2013-04-14 03:43:00,
2013-04-13 20:48:00,44.2,29.5,29.82,South,180,2.5,2.5,56,0.00,CLR,FEW,0.12,WeatherDisplay:10.37,2013-04-14 03:48:00,
2013-04-13 20:53:00,43.9,29.2,29.82,South,180,8.1,8.1,56,0.00,CLR,FEW,0.12,WeatherDisplay:10.37,2013-04-14 03:53:00,
2013-04-13 20:58:00,43.5,28.8,29.82,South,180,11.5,11.5,56,0.00,CLR,FEW,0.12,WeatherDisplay:10.37,2013-04-14 03:58:00,
2013-04-13 21:00:00,43.5,28.8,29.82,South,180,6.9,6.9,56,0.00,CLR,FEW,0.12,WeatherDisplay:10.37,2013-04-14 04:00:00,
2013-04-13 21:05:00,43.3,29.1,29.82,South,180,6.0,6.0,57,0.00,CLR,FEW,0.12,WeatherDisplay:10.37,2013-04-14 04:05:00,
2013-04-13 21:10:00,43.2,28.9,29.82,SSE,158,7.6,7.6,57,0.00,CLR,FEW,0.12,WeatherDisplay:10.37,2013-04-14 04:10:00,
2013-04-13 21:15:00,43.0,28.8,29.82,South,180,3.5,3.5,57,0.00,CLR,FEW,0.12,WeatherDisplay:10.37,2013-04-14 04:15:00,
2013-04-13 21:20:00,42.6,28.9,29.83,South,180,3.5,3.5,58,0.00,CLR,FEW,0.12,WeatherDisplay:10.37,2013-04-14 04:20:00,
2013-04-13 21:25:00,42.4,28.7,29.83,SSE,158,4.6,5.1,58,0.00,CLR,FEW,0.12,WeatherDisplay:10.37,2013-04-14 04:25:00,
2013-04-13 21:30:00,42.1,28.4,29.83,SSE,158,2.3,2.4,58,0.00,CLR,FEW,0.12,WeatherDisplay:10.37,2013-04-14 04:30:00,
2013-04-13 21:35:00,41.9,28.2,29.83,South,180,1.1,1.1,58,0.00,CLR,FEW,0.12,WeatherDisplay:10.37,2013-04-14 04:35:00,
2013-04-13 21:40:00,41.5,28.7,29.83,South,180,4.6,4.6,60,0.00,CLR,FEW,0.12,WeatherDisplay:10.37,2013-04-14 04:40:00,
2013-04-13 21:45:00,41.0,28.2,29.83,South,180,0.0,0.0,60,0.00,CLR,FEW,0.12,WeatherDisplay:10.37,2013-04-14 04:45:00,
2013-04-13 21:50:00,40.8,28.4,29.83,South,180,0.0,0.0,61,0.00,CLR,FEW,0.12,WeatherDisplay:10.37,2013-04-14 04:50:00,
2013-04-13 21:55:00,40.3,28.3,29.84,West,270,0.0,0.0,62,0.00,CLR,FEW,0.12,WeatherDisplay:10.37,2013-04-14 04:55:00,
2013-04-13 22:00:00,40.1,28.5,29.84,West,270,4.6,4.6,63,0.00,CLR,FEW,0.12,WeatherDisplay:10.37,2013-04-14 05:00:00,
2013-04-13 22:05:00,39.9,28.3,29.84,West,270,0.0,0.0,63,0.00,CLR,FEW,0.12,WeatherDisplay:10.37,2013-04-14 05:05:00,
2013-04-13 22:10:00,39.7,28.5,29.84,West,270,0.0,0.0,64,0.00,CLR,FEW,0.12,WeatherDisplay:10.37,2013-04-14 05:10:00,
2013-04-13 22:15:00,39.4,28.2,29.84,WSW,248,3.5,3.5,64,0.00,CLR,FEW,0.12,WeatherDisplay:10.37,2013-04-14 05:15:00,
2013-04-13 22:20:00,39.4,28.6,29.84,WSW,248,0.0,0.0,65,0.00,CLR,FEW,0.12,WeatherDisplay:10.37,2013-04-14 05:20:00,
2013-04-13 22:25:00,38.8,28.4,29.84,West,270,3.6,3.6,66,0.00,CLR,FEW,0.12,WeatherDisplay:10.37,2013-04-14 05:25:00,
2013-04-13 22:30:00,38.5,28.1,29.84,West,270,1.1,0.0,66,0.00,CLR,FEW,0.12,WeatherDisplay:10.37,2013-04-14 05:30:00,
2013-04-13 22:35:00,38.5,28.1,29.84,West,270,0.0,0.0,66,0.00,CLR,FEW,0.12,WeatherDisplay:10.37,2013-04-14 05:35:00,
2013-04-13 22:40:00,38.3,28.3,29.84,West,270,0.0,0.0,67,0.00,CLR,FEW,0.12,WeatherDisplay:10.37,2013-04-14 05:40:00,
2013-04-13 22:45:00,38.3,28.3,29.85,West,270,0.0,0.0,67,0.00,CLR,FEW,0.12,WeatherDisplay:10.37,2013-04-14 05:45:00,
2013-04-13 22:50:00,38.1,28.5,29.85,West,270,0.0,0.0,68,0.00,CLR,FEW,0.12,WeatherDisplay:10.37,2013-04-14 05:50:00,
2013-04-13 22:55:00,37.9,28.3,29.85,West,270,0.0,0.0,68,0.00,CLR,FEW,0.12,WeatherDisplay:10.37,2013-04-14 05:55:00,
2013-04-13 23:00:00,38.1,28.8,29.85,West,270,0.0,0.0,69,0.00,CLR,FEW,0.12,WeatherDisplay:10.37,2013-04-14 06:00:00,
2013-04-13 23:05:00,38.1,28.8,29.85,West,270,0.0,0.0,69,0.00,CLR,FEW,0.12,WeatherDisplay:10.37,2013-04-14 06:05:00,
2013-04-13 23:10:00,38.1,28.8,29.85,West,270,0.0,0.0,69,0.00,CLR,FEW,0.12,WeatherDisplay:10.37,2013-04-14 06:10:00,
2013-04-13 23:15:00,38.1,29.2,29.85,West,270,0.0,0.0,70,0.00,CLR,FEW,0.12,WeatherDisplay:10.37,2013-04-14 06:15:00,
2013-04-13 23:20:00,38.1,29.2,29.85,West,270,0.0,0.0,70,0.00,CLR,FEW,0.12,WeatherDisplay:10.37,2013-04-14 06:20:00,
2013-04-13 23:25:00,37.9,29.4,29.85,West,270,0.0,0.0,71,0.00,CLR,FEW,0.12,WeatherDisplay:10.37,2013-04-14 06:25:00,
2013-04-13 23:30:00,37.9,29.4,29.85,West,270,0.0,0.0,71,0.00,CLR,FEW,0.12,WeatherDisplay:10.37,2013-04-14 06:30:00,
2013-04-13 23:35:00,37.8,29.2,29.86,West,270,0.0,0.0,71,0.00,CLR,FEW,0.12,WeatherDisplay:10.37,2013-04-14 06:35:00,
2013-04-13 23:40:00,37.8,29.5,29.86,West,270,0.0,0.0,72,0.00,CLR,FEW,0.12,WeatherDisplay:10.37,2013-04-14 06:40:00,
2013-04-13 23:45:00,37.8,29.5,29.86,West,270,0.0,0.0,72,0.00,CLR,FEW,0.12,WeatherDisplay:10.37,2013-04-14 06:45:00,
2013-04-13 23:50:00,37.6,29.4,29.87,West,270,0.0,0.0,72,0.00,CLR,FEW,0.12,WeatherDisplay:10.37,2013-04-14 06:50:00,
2013-04-13 23:55:00,37.6,29.4,29.87,West,270,0.0,0.0,72,0.00,CLR,FEW,0.12,WeatherDisplay:10.37,2013-04-14 06:55:00,